createdAt,value
2018-05-27T00:00:35.662Z,19.95
2018-05-27T00:03:03.930Z,19.91
2018-05-27T00:05:32.256Z,19.87
2018-05-27T00:08:00.613Z,19.90
2018-05-27T00:10:28.925Z,19.81
2018-05-27T00:12:57.210Z,19.86
2018-05-27T00:15:25.537Z,19.83
2018-05-27T00:17:53.817Z,19.82
2018-05-27T00:20:22.120Z,19.77
2018-05-27T00:22:50.380Z,19.71
2018-05-27T00:25:18.712Z,19.67
2018-05-27T00:27:47.050Z,19.65
2018-05-27T00:30:16.492Z,19.58
2018-05-27T00:32:44.943Z,19.56
2018-05-27T00:35:13.368Z,19.58
2018-05-27T00:37:41.673Z,19.52
2018-05-27T00:40:09.950Z,19.53
2018-05-27T00:42:38.286Z,19.44
2018-05-27T00:45:06.701Z,19.37
2018-05-27T00:47:35.020Z,19.31
2018-05-27T00:50:03.333Z,19.26
2018-05-27T00:52:31.638Z,19.19
2018-05-27T00:54:59.951Z,19.16
2018-05-27T00:57:28.296Z,19.14
2018-05-27T00:59:56.627Z,19.09
2018-05-27T01:02:24.937Z,19.05
2018-05-27T01:04:53.254Z,19.03
2018-05-27T01:07:22.368Z,19.00
2018-05-27T01:09:50.668Z,18.94
2018-05-27T01:12:19.345Z,18.90
2018-05-27T01:14:47.647Z,18.89
2018-05-27T01:17:16.007Z,18.89
2018-05-27T01:19:44.541Z,18.91
2018-05-27T01:22:13.626Z,18.89
2018-05-27T01:24:42.785Z,19.00
2018-05-27T01:27:15.062Z,18.99
2018-05-27T01:29:43.382Z,19.02
2018-05-27T01:32:12.419Z,19.01
2018-05-27T01:34:40.710Z,19.00
2018-05-27T01:37:08.995Z,18.89
2018-05-27T01:39:37.289Z,18.91
2018-05-27T01:42:05.605Z,18.90
2018-05-27T01:44:34.664Z,18.87
2018-05-27T01:47:02.959Z,18.86
2018-05-27T01:49:32.030Z,18.76
2018-05-27T01:52:00.308Z,18.71
2018-05-27T01:54:28.625Z,18.66
2018-05-27T01:56:56.901Z,18.59
2018-05-27T01:59:25.205Z,18.48
2018-05-27T02:01:53.493Z,18.50
2018-05-27T02:04:21.769Z,18.42
2018-05-27T02:06:50.151Z,18.34
2018-05-27T02:09:18.450Z,18.32
2018-05-27T02:11:46.778Z,18.27
2018-05-27T02:14:15.111Z,18.30
2018-05-27T02:16:43.437Z,18.25
2018-05-27T02:19:11.743Z,18.21
2018-05-27T02:21:40.061Z,18.15
2018-05-27T02:24:09.116Z,18.02
2018-05-27T02:26:37.413Z,17.96
2018-05-27T02:29:05.731Z,17.91
2018-05-27T02:31:34.041Z,17.82
2018-05-27T02:34:02.367Z,17.69
2018-05-27T02:36:31.414Z,17.65
2018-05-27T02:38:59.719Z,17.54
2018-05-27T02:41:28.266Z,17.60
2018-05-27T02:43:56.550Z,17.59
2018-05-27T02:46:25.010Z,17.52
2018-05-27T02:48:53.339Z,17.51
2018-05-27T02:51:21.654Z,17.47
2018-05-27T02:53:50.718Z,17.44
2018-05-27T02:56:18.998Z,17.42
2018-05-27T02:58:47.305Z,17.38
2018-05-27T03:01:15.624Z,17.41
2018-05-27T03:03:43.900Z,17.37
2018-05-27T03:06:12.194Z,17.33
2018-05-27T03:08:40.504Z,17.36
2018-05-27T03:11:09.543Z,17.33
2018-05-27T03:13:37.885Z,17.32
2018-05-27T03:16:06.936Z,17.35
2018-05-27T03:18:35.221Z,17.41
2018-05-27T03:21:03.499Z,17.41
2018-05-27T03:23:31.816Z,17.42
2018-05-27T03:26:00.092Z,17.46
2018-05-27T03:28:28.748Z,17.48
2018-05-27T03:30:57.096Z,17.52
2018-05-27T03:33:25.411Z,17.64
2018-05-27T03:35:53.790Z,17.59
2018-05-27T03:38:22.096Z,17.54
2018-05-27T03:40:50.376Z,17.52
2018-05-27T03:43:18.683Z,17.54
2018-05-27T03:45:46.994Z,17.70
2018-05-27T03:48:15.281Z,17.64
2018-05-27T03:50:44.325Z,17.66
2018-05-27T03:53:12.641Z,17.82
2018-05-27T03:55:40.899Z,17.65
2018-05-27T03:58:09.191Z,17.80
2018-05-27T04:00:37.461Z,17.90
2018-05-27T04:03:08.951Z,19.28
2018-05-27T04:05:55.716Z,19.29
2018-05-27T04:08:35.755Z,19.91
2018-05-27T04:11:04.053Z,19.77
2018-05-27T04:13:32.935Z,19.75
2018-05-27T04:16:02.069Z,19.35
2018-05-27T04:18:31.368Z,21.81
2018-05-27T04:21:00.398Z,21.20
2018-05-27T04:23:28.754Z,21.14
2018-05-27T04:25:57.845Z,22.01
2018-05-27T04:28:26.965Z,22.55
2018-05-27T04:30:55.197Z,21.30
2018-05-27T04:33:23.544Z,22.21
2018-05-27T04:35:51.854Z,22.32
2018-05-27T04:38:20.157Z,23.19
2018-05-27T04:40:49.258Z,24.66
2018-05-27T04:43:17.590Z,24.57
2018-05-27T04:45:45.917Z,24.45
2018-05-27T04:48:14.191Z,22.27
2018-05-27T04:50:42.496Z,20.05
2018-05-27T04:53:10.930Z,19.86
2018-05-27T04:55:39.992Z,19.89
2018-05-27T04:58:08.270Z,18.82
2018-05-27T05:00:37.003Z,18.66
2018-05-27T05:03:06.052Z,18.60
2018-05-27T05:05:34.469Z,18.73
2018-05-27T05:08:02.781Z,18.55
2018-05-27T05:10:31.062Z,18.58
2018-05-27T05:12:59.419Z,18.47
2018-05-27T05:15:27.740Z,18.74
2018-05-27T05:17:56.047Z,18.55
2018-05-27T05:20:24.341Z,18.61
2018-05-27T05:22:53.405Z,18.82
2018-05-27T05:25:21.742Z,18.95
2018-05-27T05:27:50.029Z,19.63
2018-05-27T05:30:18.315Z,24.80
2018-05-27T05:32:46.604Z,25.52
2018-05-27T05:35:14.920Z,24.59
2018-05-27T05:37:43.979Z,26.70
2018-05-27T05:40:12.323Z,26.71
2018-05-27T05:42:40.931Z,28.84
2018-05-27T05:45:09.262Z,30.57
2018-05-27T05:47:38.667Z,28.40
2018-05-27T05:50:06.997Z,30.27
2018-05-27T05:52:35.304Z,30.48
2018-05-27T05:55:04.352Z,28.76
2018-05-27T05:57:32.678Z,29.69
2018-05-27T06:00:01.008Z,26.79
2018-05-27T06:02:29.356Z,30.40
2018-05-27T06:04:58.395Z,30.75
2018-05-27T06:07:26.717Z,30.16
2018-05-27T06:09:55.809Z,28.50
2018-05-27T06:12:24.889Z,28.46
2018-05-27T06:14:56.962Z,28.65
2018-05-27T06:17:25.263Z,31.46
2018-05-27T06:19:53.575Z,30.28
2018-05-27T06:22:22.016Z,29.61
2018-05-27T06:24:51.029Z,30.62
2018-05-27T06:27:19.401Z,32.09
2018-05-27T06:29:47.692Z,30.46
2018-05-27T06:32:16.041Z,30.36
2018-05-27T06:34:45.139Z,30.48
2018-05-27T06:37:14.204Z,31.48
2018-05-27T06:39:42.811Z,30.12
2018-05-27T06:42:11.873Z,30.91
2018-05-27T06:44:40.170Z,29.38
2018-05-27T06:47:08.440Z,27.77
2018-05-27T06:49:36.744Z,28.65
2018-05-27T06:52:05.797Z,29.10
2018-05-27T06:54:34.099Z,28.25
2018-05-27T06:57:02.338Z,29.20
2018-05-27T06:59:30.700Z,28.88
2018-05-27T07:01:59.005Z,29.29
2018-05-27T07:04:27.365Z,30.51
2018-05-27T07:06:56.366Z,31.67
2018-05-27T07:09:24.785Z,30.14
2018-05-27T07:11:53.138Z,30.33
2018-05-27T07:14:21.436Z,30.64
2018-05-27T07:16:49.715Z,29.37
2018-05-27T07:19:18.012Z,27.25
2018-05-27T07:21:47.360Z,27.25
2018-05-27T07:24:15.647Z,29.76
2018-05-27T07:26:43.984Z,30.04
2018-05-27T07:29:12.297Z,28.46
2018-05-27T07:31:40.593Z,28.68
2018-05-27T07:34:08.873Z,27.37
2018-05-27T07:36:37.151Z,28.36
2018-05-27T07:39:06.172Z,30.40
2018-05-27T07:41:35.233Z,29.30
2018-05-27T07:44:03.521Z,29.74
2018-05-27T07:46:31.862Z,28.09
2018-05-27T07:49:00.173Z,27.32
2018-05-27T07:51:32.251Z,30.17
2018-05-27T07:54:00.540Z,29.22
2018-05-27T07:56:29.689Z,28.56
2018-05-27T07:58:57.969Z,29.50
2018-05-27T08:01:26.261Z,29.00
2018-05-27T08:03:54.581Z,27.27
2018-05-27T08:06:23.645Z,27.81
2018-05-27T08:08:52.343Z,28.81
2018-05-27T08:11:20.684Z,28.97
2018-05-27T08:13:48.970Z,28.32
2018-05-27T08:16:17.259Z,29.01
2018-05-27T08:18:45.552Z,28.19
2018-05-27T08:21:13.880Z,30.24
2018-05-27T08:23:42.464Z,27.69
2018-05-27T08:26:10.770Z,29.52
2018-05-27T08:28:39.138Z,29.09
2018-05-27T08:31:11.180Z,29.38
2018-05-27T08:33:39.490Z,28.64
2018-05-27T08:36:07.823Z,29.47
2018-05-27T08:38:36.191Z,29.20
2018-05-27T08:41:05.220Z,29.49
2018-05-27T08:43:33.554Z,28.27
2018-05-27T08:46:01.811Z,27.97
2018-05-27T08:48:30.125Z,29.46
2018-05-27T08:50:58.413Z,29.88
2018-05-27T08:53:26.771Z,26.53
2018-05-27T08:55:55.495Z,27.85
2018-05-27T08:58:23.849Z,28.07
2018-05-27T09:00:52.141Z,29.30
2018-05-27T09:03:20.455Z,28.27
2018-05-27T09:05:48.754Z,28.51
2018-05-27T09:08:17.117Z,27.25
2018-05-27T09:10:45.408Z,28.92
2018-05-27T09:13:13.763Z,29.93
2018-05-27T09:15:42.049Z,30.18
2018-05-27T09:18:10.381Z,28.12
2018-05-27T09:20:38.682Z,28.87
2018-05-27T09:23:07.007Z,30.15
2018-05-27T09:25:36.076Z,29.70
2018-05-27T09:28:04.357Z,30.15
2018-05-27T09:30:32.793Z,29.72
2018-05-27T09:33:01.183Z,29.61
2018-05-27T09:35:29.472Z,29.88
2018-05-27T09:37:58.070Z,29.04
2018-05-27T09:40:26.459Z,28.53
2018-05-27T09:42:54.738Z,28.31
2018-05-27T09:45:23.074Z,29.18
2018-05-27T09:47:52.096Z,29.77
2018-05-27T09:50:20.415Z,29.75
2018-05-27T09:52:49.520Z,30.25
2018-05-27T09:55:17.839Z,27.83
2018-05-27T09:57:46.202Z,29.22
2018-05-27T10:00:14.532Z,29.35
2018-05-27T10:02:43.000Z,29.48
2018-05-27T10:05:11.321Z,29.91
2018-05-27T10:07:39.599Z,28.44
2018-05-27T10:10:07.906Z,28.75
2018-05-27T10:12:36.194Z,29.12
2018-05-27T10:15:04.531Z,28.56
2018-05-27T10:17:32.846Z,29.04
2018-05-27T10:20:01.532Z,29.22
2018-05-27T10:22:29.813Z,28.69
2018-05-27T10:24:58.901Z,28.72
2018-05-27T10:27:27.198Z,29.47
2018-05-27T10:29:55.614Z,28.43
2018-05-27T10:32:24.703Z,29.60
2018-05-27T10:34:53.803Z,29.06
2018-05-27T10:37:22.096Z,29.39
2018-05-27T10:39:50.398Z,29.20
2018-05-27T10:42:18.708Z,29.14
2018-05-27T10:44:47.006Z,29.14
2018-05-27T10:47:15.335Z,28.81
2018-05-27T10:49:43.660Z,29.19
2018-05-27T10:52:12.723Z,28.96
2018-05-27T10:54:40.997Z,29.11
2018-05-27T10:57:09.295Z,28.51
2018-05-27T10:59:37.643Z,28.77
2018-05-27T11:02:06.371Z,28.45
2018-05-27T11:04:35.422Z,28.47
2018-05-27T11:07:04.061Z,28.34
2018-05-27T11:09:33.145Z,27.94
2018-05-27T11:12:02.218Z,27.55
2018-05-27T11:14:30.484Z,27.40
2018-05-27T11:16:58.853Z,27.16
2018-05-27T11:19:27.131Z,27.40
2018-05-27T11:21:55.459Z,27.25
2018-05-27T11:24:24.593Z,27.01
2018-05-27T11:26:52.897Z,26.57
2018-05-27T11:29:21.236Z,26.98
2018-05-27T11:31:49.580Z,26.97
2018-05-27T11:34:17.932Z,27.41
2018-05-27T11:36:46.236Z,26.96
2018-05-27T11:39:15.329Z,26.97
2018-05-27T11:41:43.647Z,27.35
2018-05-27T11:44:11.981Z,27.49
2018-05-27T11:46:40.284Z,27.42
2018-05-27T11:49:13.425Z,27.27
2018-05-27T11:51:41.708Z,27.40
2018-05-27T11:54:10.430Z,27.69
2018-05-27T11:56:38.676Z,27.49
2018-05-27T11:59:07.033Z,27.51
2018-05-27T12:01:35.409Z,27.35
2018-05-27T12:04:03.770Z,27.32
2018-05-27T12:06:32.036Z,27.47
2018-05-27T12:09:00.372Z,27.63
2018-05-27T12:11:28.687Z,27.45
2018-05-27T12:13:57.757Z,27.48
2018-05-27T12:16:26.035Z,27.57
2018-05-27T12:18:54.353Z,27.96
2018-05-27T12:21:22.660Z,27.70
2018-05-27T12:23:50.981Z,27.95
2018-05-27T12:26:20.020Z,27.72
2018-05-27T12:28:48.345Z,27.89
2018-05-27T12:31:16.644Z,28.33
2018-05-27T12:33:45.791Z,27.97
2018-05-27T12:36:14.115Z,28.10
2018-05-27T12:38:43.171Z,28.20
2018-05-27T12:41:11.832Z,27.76
2018-05-27T12:43:40.108Z,27.58
2018-05-27T12:46:08.418Z,27.75
2018-05-27T12:48:36.748Z,28.03
2018-05-27T12:51:05.107Z,27.98
2018-05-27T12:53:33.430Z,28.07
2018-05-27T12:56:01.725Z,28.22
2018-05-27T12:58:30.179Z,28.33
2018-05-27T13:00:58.499Z,28.08
2018-05-27T13:03:26.896Z,28.20
2018-05-27T13:05:56.015Z,27.97
2018-05-27T13:08:25.065Z,28.09
2018-05-27T13:10:53.433Z,28.45
2018-05-27T13:13:21.774Z,28.31
2018-05-27T13:15:50.106Z,28.14
2018-05-27T13:18:18.609Z,28.09
2018-05-27T13:20:47.686Z,28.09
2018-05-27T13:23:16.137Z,28.23
2018-05-27T13:25:44.427Z,28.26
2018-05-27T13:28:12.807Z,28.28
2018-05-27T13:30:41.117Z,28.61
2018-05-27T13:33:10.337Z,29.02
2018-05-27T13:35:38.775Z,29.02
2018-05-27T13:38:07.091Z,29.07
2018-05-27T13:40:35.465Z,28.80
2018-05-27T13:43:03.773Z,28.70
2018-05-27T13:45:32.196Z,28.64
2018-05-27T13:48:00.541Z,28.81
2018-05-27T13:50:28.891Z,29.44
2018-05-27T13:52:57.195Z,28.93
2018-05-27T13:55:25.458Z,28.99
2018-05-27T13:57:53.895Z,28.46
2018-05-27T14:00:22.164Z,28.39
2018-05-27T14:02:50.537Z,28.82
2018-05-27T14:05:18.985Z,28.35
2018-05-27T14:07:47.343Z,28.82
2018-05-27T14:10:15.688Z,28.97
2018-05-27T14:12:44.781Z,28.71
2018-05-27T14:15:13.059Z,28.57
2018-05-27T14:17:41.407Z,28.57
2018-05-27T14:20:09.904Z,28.52
2018-05-27T14:22:38.323Z,28.51
2018-05-27T14:25:07.405Z,28.39
2018-05-27T14:27:36.490Z,27.79
2018-05-27T14:30:04.797Z,27.90
2018-05-27T14:32:33.892Z,27.86
2018-05-27T14:35:02.972Z,27.86
2018-05-27T14:37:32.104Z,28.05
2018-05-27T14:40:00.482Z,28.01
2018-05-27T14:42:28.851Z,27.93
2018-05-27T14:44:57.200Z,28.07
2018-05-27T14:47:25.730Z,28.06
2018-05-27T14:49:54.019Z,27.98
2018-05-27T14:52:22.320Z,28.11
2018-05-27T14:54:50.656Z,28.06
2018-05-27T14:57:18.980Z,27.87
2018-05-27T14:59:47.297Z,28.08
2018-05-27T15:02:15.588Z,27.90
2018-05-27T15:04:43.919Z,28.14
2018-05-27T15:07:12.228Z,28.08
2018-05-27T15:09:40.567Z,27.92
2018-05-27T15:12:08.927Z,27.89
2018-05-27T15:14:37.995Z,27.76
2018-05-27T15:17:06.377Z,27.56
2018-05-27T15:19:34.825Z,27.49
2018-05-27T15:22:03.175Z,27.54
2018-05-27T15:24:31.521Z,27.48
2018-05-27T15:26:59.927Z,27.53
2018-05-27T15:29:28.302Z,27.53
2018-05-27T15:31:56.798Z,27.44
2018-05-27T15:34:25.260Z,27.21
2018-05-27T15:36:53.570Z,27.23
2018-05-27T15:39:21.981Z,27.22
2018-05-27T15:41:50.271Z,26.60
2018-05-27T15:44:18.622Z,26.01
2018-05-27T15:46:47.729Z,25.48
2018-05-27T15:49:20.074Z,25.25
2018-05-27T15:51:48.457Z,24.77
2018-05-27T15:54:16.894Z,24.48
2018-05-27T15:56:45.231Z,24.56
2018-05-27T15:59:13.616Z,24.15
2018-05-27T16:01:41.957Z,24.46
2018-05-27T16:04:10.322Z,24.22
2018-05-27T16:06:38.648Z,24.27
2018-05-27T16:09:07.769Z,24.00
2018-05-27T16:11:36.132Z,24.17
2018-05-27T16:14:04.557Z,23.96
2018-05-27T16:16:32.953Z,23.42
2018-05-27T16:19:01.245Z,23.16
2018-05-27T16:21:29.675Z,22.55
2018-05-27T16:23:57.963Z,22.24
2018-05-27T16:26:26.328Z,22.32
2018-05-27T16:28:54.642Z,22.50
2018-05-27T16:31:22.960Z,22.64
2018-05-27T16:33:51.314Z,22.83
2018-05-27T16:36:19.686Z,22.93
2018-05-27T16:38:47.989Z,23.07
2018-05-27T16:41:17.126Z,23.26
2018-05-27T16:43:45.482Z,23.13
2018-05-27T16:46:13.813Z,23.30
2018-05-27T16:48:42.093Z,23.33
2018-05-27T16:51:10.463Z,23.10
2018-05-27T16:53:38.788Z,23.29
2018-05-27T16:56:07.149Z,23.26
2018-05-27T16:58:36.214Z,23.26
2018-05-27T17:01:04.670Z,23.30
2018-05-27T17:03:33.055Z,23.31
2018-05-27T17:06:01.367Z,23.37
2018-05-27T17:08:29.673Z,23.33
2018-05-27T17:10:58.722Z,23.52
2018-05-27T17:13:27.027Z,23.43
2018-05-27T17:15:56.324Z,23.67
2018-05-27T17:18:24.660Z,23.31
2018-05-27T17:20:52.952Z,23.01
2018-05-27T17:23:21.350Z,22.93
2018-05-27T17:25:49.653Z,22.77
2018-05-27T17:28:18.115Z,22.63
2018-05-27T17:30:46.454Z,22.50
2018-05-27T17:33:14.784Z,22.46
2018-05-27T17:35:43.932Z,22.40
2018-05-27T17:38:12.346Z,22.37
2018-05-27T17:40:40.637Z,22.33
2018-05-27T17:43:09.690Z,22.21
2018-05-27T17:45:38.082Z,22.22
2018-05-27T17:48:14.345Z,22.13
2018-05-27T17:50:42.684Z,22.04
2018-05-27T17:53:10.955Z,22.09
2018-05-27T17:55:39.333Z,22.01
2018-05-27T17:58:07.703Z,22.01
2018-05-27T18:00:36.937Z,22.01
2018-05-27T18:03:05.263Z,21.95
2018-05-27T18:05:34.545Z,21.97
2018-05-27T18:08:02.903Z,21.92
2018-05-27T18:10:31.194Z,21.96
2018-05-27T18:12:59.494Z,22.03
2018-05-27T18:15:28.562Z,21.97
2018-05-27T18:17:56.856Z,21.90
2018-05-27T18:20:25.300Z,21.89
2018-05-27T18:22:53.686Z,21.86
2018-05-27T18:25:22.047Z,21.86
2018-05-27T18:27:50.344Z,21.77
2018-05-27T18:30:18.701Z,21.68
2018-05-27T18:32:47.033Z,21.70
2018-05-27T18:35:15.352Z,21.68
2018-05-27T18:37:43.649Z,21.64
2018-05-27T18:40:11.966Z,21.65
2018-05-27T18:42:40.413Z,21.61
2018-05-27T18:45:08.738Z,21.54
2018-05-27T18:47:37.838Z,21.57
2018-05-27T18:50:06.180Z,21.47
2018-05-27T18:52:34.518Z,21.46
2018-05-27T18:55:02.831Z,21.41
2018-05-27T18:57:31.203Z,21.37
2018-05-27T18:59:59.546Z,21.28
2018-05-27T19:02:27.935Z,21.24
2018-05-27T19:04:56.291Z,21.26
2018-05-27T19:07:25.433Z,21.28
2018-05-27T19:09:53.770Z,21.26
2018-05-27T19:12:22.092Z,21.15
2018-05-27T19:14:50.437Z,21.10
2018-05-27T19:17:18.773Z,21.06
2018-05-27T19:19:47.233Z,20.93
2018-05-27T19:22:15.651Z,20.95
2018-05-27T19:24:44.724Z,20.88
2018-05-27T19:27:13.134Z,20.93
2018-05-27T19:29:42.330Z,20.79
2018-05-27T19:32:11.594Z,20.80
2018-05-27T19:34:39.854Z,20.86
2018-05-27T19:37:08.182Z,20.83
2018-05-27T19:39:37.308Z,20.88
2018-05-27T19:42:05.613Z,20.85
2018-05-27T19:44:33.957Z,20.78
2018-05-27T19:47:02.394Z,20.66
2018-05-27T19:49:30.820Z,20.64
2018-05-27T19:51:59.170Z,20.46
2018-05-27T19:54:28.462Z,20.55
2018-05-27T19:56:56.768Z,20.38
2018-05-27T19:59:25.120Z,20.39
2018-05-27T20:01:53.455Z,20.20
2018-05-27T20:04:21.761Z,20.23
2018-05-27T20:06:50.206Z,20.25
2018-05-27T20:09:18.630Z,20.24
2018-05-27T20:11:47.020Z,20.19
2018-05-27T20:14:15.412Z,20.17
2018-05-27T20:16:44.770Z,20.10
2018-05-27T20:19:13.093Z,20.06
2018-05-27T20:21:42.258Z,20.16
2018-05-27T20:24:10.744Z,20.14
2018-05-27T20:26:39.206Z,20.11
2018-05-27T20:29:07.528Z,20.12
2018-05-27T20:31:36.683Z,20.28
2018-05-27T20:34:05.020Z,20.31
2018-05-27T20:36:33.443Z,20.18
2018-05-27T20:39:01.745Z,20.22
2018-05-27T20:41:30.233Z,20.23
2018-05-27T20:43:58.551Z,20.24
2018-05-27T20:46:26.951Z,20.30
2018-05-27T20:48:55.438Z,20.36
2018-05-27T20:51:23.880Z,20.38
2018-05-27T20:53:52.283Z,20.38
2018-05-27T20:56:20.678Z,20.42
2018-05-27T20:58:49.189Z,20.46
2018-05-27T21:01:17.554Z,20.45
2018-05-27T21:03:45.824Z,20.42
2018-05-27T21:06:14.300Z,20.39
2018-05-27T21:08:42.605Z,20.37
2018-05-27T21:11:10.928Z,20.37
2018-05-27T21:13:39.234Z,20.36
2018-05-27T21:16:07.575Z,20.37
2018-05-27T21:18:35.878Z,20.37
2018-05-27T21:21:04.318Z,20.36
2018-05-27T21:23:33.574Z,20.39
2018-05-27T21:26:01.940Z,20.41
2018-05-27T21:28:30.402Z,20.36
2018-05-27T21:30:58.724Z,20.36
2018-05-27T21:33:27.856Z,20.33
2018-05-27T21:35:56.218Z,20.35
2018-05-27T21:38:25.366Z,20.35
2018-05-27T21:40:53.683Z,20.33
2018-05-27T21:43:22.033Z,20.30
2018-05-27T21:45:50.411Z,20.33
2018-05-27T21:48:18.925Z,20.34
2018-05-27T21:50:51.113Z,20.35
2018-05-27T21:53:20.354Z,20.33
2018-05-27T21:55:48.679Z,20.35
2018-05-27T21:58:16.995Z,20.35
2018-05-27T22:00:45.287Z,20.35
2018-05-27T22:03:13.574Z,20.31
2018-05-27T22:05:41.916Z,20.31
2018-05-27T22:08:10.216Z,20.35
2018-05-27T22:10:38.532Z,20.31
2018-05-27T22:13:06.861Z,20.28
2018-05-27T22:15:35.168Z,20.32
2018-05-27T22:18:03.484Z,20.26
2018-05-27T22:20:32.584Z,20.24
2018-05-27T22:23:00.859Z,20.23
2018-05-27T22:25:29.967Z,20.22
2018-05-27T22:27:59.007Z,20.22
2018-05-27T22:30:27.305Z,20.24
2018-05-27T22:32:55.628Z,20.22
2018-05-27T22:35:23.941Z,20.17
2018-05-27T22:37:52.985Z,20.17
2018-05-27T22:40:22.095Z,20.13
2018-05-27T22:42:51.187Z,20.10
2018-05-27T22:45:19.549Z,20.08
2018-05-27T22:47:48.695Z,20.01
2018-05-27T22:50:17.020Z,19.96
2018-05-27T22:52:46.141Z,19.88
2018-05-27T22:55:14.500Z,19.81
2018-05-27T22:57:43.658Z,19.79
2018-05-27T23:00:11.978Z,19.72
2018-05-27T23:02:41.135Z,19.72
2018-05-27T23:05:13.328Z,19.74
2018-05-27T23:07:41.642Z,19.69
2018-05-27T23:10:10.036Z,19.71
2018-05-27T23:12:38.336Z,19.68
2018-05-27T23:15:06.667Z,19.66
2018-05-27T23:17:34.994Z,19.64
2018-05-27T23:20:03.275Z,19.64
2018-05-27T23:22:31.613Z,19.65
2018-05-27T23:24:59.921Z,19.61
2018-05-27T23:27:28.354Z,19.59
2018-05-27T23:29:56.677Z,19.58
2018-05-27T23:32:24.976Z,19.57
2018-05-27T23:34:53.288Z,19.61
2018-05-27T23:37:22.349Z,19.59
2018-05-27T23:39:50.650Z,19.57
2018-05-27T23:42:19.756Z,19.57
2018-05-27T23:44:48.808Z,19.57
2018-05-27T23:47:17.126Z,19.53
2018-05-27T23:49:46.170Z,19.48
2018-05-27T23:52:14.488Z,19.43
2018-05-27T23:54:42.831Z,19.40
2018-05-27T23:57:11.105Z,19.40
2018-05-27T23:59:39.403Z,19.38
